Time;durP1;ratioP1;P1;durP2;ratioP2;P2;SDS_P1;SDS_P2;PMS_P1;PMS_P2;Temp;Humidity;BMP_temperature;BMP_pressure;BME280_temperature;BME280_humidity;BME280_pressure;Samples;Min_cycle;Max_cycle;Signal;HPM_P1;HPM_P2
2021/05/30 00:01:20;;;;;;;2.00;1.80;;;11.30;99.90;;;;;;4967569;28;20193;-69
2021/05/30 00:03:47;;;;;;;2.50;2.20;;;11.30;99.90;;;;;;4968491;28;20235;-69
2021/05/30 00:06:13;;;;;;;3.23;1.70;;;11.30;99.90;;;;;;4967569;28;20326;-70
2021/05/30 00:08:40;;;;;;;2.23;2.00;;;11.10;99.90;;;;;;4968660;28;20208;-70
2021/05/30 00:11:07;;;;;;;3.50;1.77;;;11.20;99.90;;;;;;4963187;28;20289;-69
2021/05/30 00:13:34;;;;;;;2.87;2.10;;;11.20;99.90;;;;;;4966885;28;20773;-68
2021/05/30 00:16:00;;;;;;;2.73;2.17;;;11.10;99.90;;;;;;4970697;28;20196;-69
2021/05/30 00:18:27;;;;;;;3.40;2.27;;;11.20;99.90;;;;;;4971183;28;20205;-69
2021/05/30 00:20:53;;;;;;;2.53;2.30;;;11.10;99.90;;;;;;4972022;28;20266;-69
2021/05/30 00:23:19;;;;;;;3.63;2.13;;;11.10;99.90;;;;;;4971959;28;20289;-69
2021/05/30 00:25:47;;;;;;;2.00;1.80;;;11.00;99.90;;;;;;4971781;28;20215;-68
2021/05/30 00:28:13;;;;;;;5.67;2.20;;;11.00;99.90;;;;;;4972229;28;20238;-69
2021/05/30 00:30:40;;;;;;;3.77;2.50;;;10.90;99.90;;;;;;4968613;28;20203;-69
2021/05/30 00:33:06;;;;;;;2.27;2.07;;;10.90;99.90;;;;;;4972290;28;20219;-69
2021/05/30 00:35:33;;;;;;;4.20;2.20;;;10.90;99.90;;;;;;4971507;28;20287;-68
2021/05/30 00:37:59;;;;;;;2.57;2.23;;;10.90;99.90;;;;;;4971848;28;20212;-69
2021/05/30 00:40:26;;;;;;;3.47;2.57;;;10.80;99.90;;;;;;4971674;28;20243;-68
2021/05/30 00:42:53;;;;;;;4.50;2.67;;;10.80;99.90;;;;;;4971252;28;20227;-69
2021/05/30 00:45:20;;;;;;;7.00;2.70;;;10.70;99.90;;;;;;4969238;28;20220;-69
2021/05/30 00:47:47;;;;;;;4.27;2.53;;;10.70;99.90;;;;;;4972174;28;20209;-69
2021/05/30 00:50:14;;;;;;;7.07;3.50;;;10.70;99.90;;;;;;4971323;28;20207;-69
2021/05/30 00:52:41;;;;;;;5.63;2.90;;;10.60;99.90;;;;;;4963796;28;20193;-69
2021/05/30 00:55:11;;;;;;;4.00;3.00;;;10.60;99.90;;;;;;4970168;28;20278;-68
2021/05/30 00:57:38;;;;;;;6.73;2.87;;;10.60;99.90;;;;;;4972090;28;20266;-68
2021/05/30 01:00:09;;;;;;;5.93;3.10;;;10.60;99.90;;;;;;4969223;28;20201;-69
2021/05/30 01:02:36;;;;;;;4.97;3.13;;;10.60;99.90;;;;;;4971441;28;20225;-69
2021/05/30 01:05:04;;;;;;;3.33;2.80;;;10.50;99.90;;;;;;4970504;28;20318;-69
2021/05/30 01:07:33;;;;;;;2.73;2.47;;;10.50;99.90;;;;;;4971363;28;20246;-69
2021/05/30 01:10:16;;;;;;;4.03;2.40;;;10.50;99.90;;;;;;4971050;28;20282;-69
2021/05/30 01:12:43;;;;;;;3.43;2.43;;;10.60;99.90;;;;;;4971558;28;20689;-69
2021/05/30 01:15:12;;;;;;;2.60;1.80;;;10.70;99.90;;;;;;4968923;28;20561;-70
2021/05/30 01:17:38;;;;;;;1.60;1.50;;;10.70;99.90;;;;;;4971411;28;20279;-70
2021/05/30 01:20:11;;;;;;;2.50;1.60;;;10.70;99.90;;;;;;4970973;28;20201;-69
2021/05/30 01:22:38;;;;;;;3.17;2.13;;;10.90;99.90;;;;;;4970787;28;20222;-69
2021/05/30 01:25:08;;;;;;;3.63;2.17;;;10.90;99.90;;;;;;4968985;28;20213;-69
2021/05/30 01:27:34;;;;;;;4.23;2.07;;;11.00;99.90;;;;;;4971476;28;20642;-69
2021/05/30 01:30:00;;;;;;;2.23;2.03;;;11.00;99.90;;;;;;4967996;28;20684;-69
2021/05/30 01:32:27;;;;;;;3.77;2.20;;;11.10;99.90;;;;;;4971473;28;20300;-69
2021/05/30 01:34:54;;;;;;;5.20;2.87;;;11.10;99.90;;;;;;4970050;28;20249;-69
2021/05/30 01:37:20;;;;;;;3.53;2.67;;;11.10;99.90;;;;;;4971496;28;20213;-69
2021/05/30 01:39:46;;;;;;;6.43;3.00;;;11.00;99.90;;;;;;4969567;28;20210;-69
2021/05/30 01:42:14;;;;;;;4.30;2.57;;;11.00;99.90;;;;;;4970752;28;20231;-69
2021/05/30 01:44:40;;;;;;;6.60;2.40;;;11.00;99.90;;;;;;4968384;28;20240;-69
2021/05/30 01:47:07;;;;;;;4.90;2.47;;;10.90;99.90;;;;;;4985936;28;20200;-69
2021/05/30 01:49:33;;;;;;;2.93;2.57;;;10.90;99.90;;;;;;4965390;28;20213;-69
2021/05/30 01:52:00;;;;;;;3.77;2.20;;;10.90;99.90;;;;;;4966904;28;20212;-69
2021/05/30 01:54:28;;;;;;;5.20;2.40;;;10.90;99.90;;;;;;4964080;28;20206;-69
2021/05/30 01:56:55;;;;;;;3.20;2.50;;;10.90;99.90;;;;;;4971162;28;20214;-69
2021/05/30 01:59:23;;;;;;;5.70;2.80;;;10.90;99.90;;;;;;4967625;28;20210;-70
2021/05/30 02:01:50;;;;;;;4.63;2.60;;;10.80;99.90;;;;;;4970945;28;20287;-69
2021/05/30 02:04:16;;;;;;;3.67;2.47;;;10.80;99.90;;;;;;4970427;28;20542;-69
2021/05/30 02:06:44;;;;;;;3.20;2.70;;;10.80;99.90;;;;;;4969334;28;20230;-69
2021/05/30 02:09:11;;;;;;;3.67;2.90;;;10.70;99.90;;;;;;4969769;28;20602;-69
2021/05/30 02:11:38;;;;;;;4.03;2.83;;;10.70;99.90;;;;;;4970445;28;20298;-69
2021/05/30 02:14:06;;;;;;;3.10;2.80;;;10.70;99.90;;;;;;4967937;28;20243;-69
2021/05/30 02:16:35;;;;;;;5.60;2.53;;;10.70;99.90;;;;;;4969929;28;20298;-69
2021/05/30 02:19:01;;;;;;;4.10;2.57;;;10.70;99.90;;;;;;4971826;28;20203;-69
2021/05/30 02:21:39;;;;;;;4.73;2.47;;;10.70;99.90;;;;;;4972743;28;20265;-69
2021/05/30 02:24:07;;;;;;;5.40;2.80;;;10.70;99.90;;;;;;4969271;28;20210;-69
2021/05/30 02:26:33;;;;;;;5.10;2.90;;;10.70;99.90;;;;;;4965273;28;20224;-69
2021/05/30 02:29:00;;;;;;;5.73;3.03;;;10.70;99.90;;;;;;4967464;28;20573;-68
2021/05/30 02:31:27;;;;;;;5.93;2.53;;;10.70;99.90;;;;;;4969685;28;20249;-68
2021/05/30 02:33:54;;;;;;;4.67;2.80;;;10.70;99.90;;;;;;4969881;28;20652;-69
2021/05/30 02:36:20;;;;;;;3.37;2.53;;;10.70;99.90;;;;;;4969433;28;20290;-68
2021/05/30 02:38:47;;;;;;;7.87;2.60;;;10.70;99.90;;;;;;4969476;28;20418;-69
2021/05/30 02:41:13;;;;;;;6.07;3.00;;;10.70;99.90;;;;;;4969704;28;20199;-70
2021/05/30 02:43:40;;;;;;;5.43;2.73;;;10.70;99.90;;;;;;4969186;28;20251;-68
2021/05/30 02:46:07;;;;;;;10.17;2.97;;;10.80;99.90;;;;;;4967690;28;20240;-68
2021/05/30 02:48:33;;;;;;;5.67;2.70;;;10.70;99.90;;;;;;4968002;28;20215;-69
2021/05/30 02:51:00;;;;;;;4.03;2.50;;;10.80;99.90;;;;;;4969828;28;20233;-68
2021/05/30 02:53:28;;;;;;;4.83;2.43;;;10.80;99.90;;;;;;4969447;28;20699;-69
2021/05/30 02:55:55;;;;;;;4.70;2.20;;;10.80;99.90;;;;;;4968632;28;20288;-69
2021/05/30 02:58:21;;;;;;;6.00;2.70;;;10.80;99.90;;;;;;4969339;28;20225;-69
2021/05/30 03:00:48;;;;;;;2.87;2.33;;;10.80;99.90;;;;;;4967206;28;20194;-69
2021/05/30 03:03:15;;;;;;;6.47;2.53;;;10.80;99.90;;;;;;4969368;28;20203;-69
2021/05/30 03:05:41;;;;;;;3.87;2.30;;;10.80;99.90;;;;;;4969366;28;20299;-69
2021/05/30 03:08:09;;;;;;;7.70;2.77;;;10.80;99.90;;;;;;4969339;28;20309;-69
2021/05/30 03:10:36;;;;;;;2.53;2.10;;;10.80;99.90;;;;;;4963583;28;20234;-69
2021/05/30 03:13:03;;;;;;;3.57;2.20;;;10.80;99.90;;;;;;4969336;28;20283;-69
2021/05/30 03:15:30;;;;;;;4.87;2.23;;;10.90;99.90;;;;;;4967186;28;20288;-69
2021/05/30 03:17:57;;;;;;;6.80;2.70;;;10.80;99.90;;;;;;4969721;28;20314;-70
2021/05/30 03:20:23;;;;;;;8.00;2.87;;;10.90;99.90;;;;;;4969450;28;20626;-69
2021/05/30 03:22:50;;;;;;;5.17;2.90;;;10.80;99.90;;;;;;4969744;28;20627;-69
2021/05/30 03:25:17;;;;;;;7.07;3.40;;;10.90;99.90;;;;;;4967243;28;20226;-69
2021/05/30 03:27:44;;;;;;;4.83;2.20;;;10.90;99.90;;;;;;4969877;28;20204;-68
2021/05/30 03:30:12;;;;;;;2.70;2.47;;;10.90;99.90;;;;;;4966812;28;20212;-69
2021/05/30 03:32:39;;;;;;;3.90;2.50;;;10.90;99.90;;;;;;4964949;28;20225;-69
2021/05/30 03:35:07;;;;;;;3.97;2.27;;;10.90;99.90;;;;;;4965950;28;20352;-69
2021/05/30 03:37:33;;;;;;;4.43;2.30;;;10.90;99.90;;;;;;4968115;28;20287;-68
2021/05/30 03:40:04;;;;;;;4.17;2.30;;;10.90;99.90;;;;;;4968332;28;20315;-68
2021/05/30 03:42:36;;;;;;;4.40;2.40;;;11.00;99.90;;;;;;4969962;28;20192;-68
2021/05/30 03:45:03;;;;;;;7.47;2.83;;;11.00;99.90;;;;;;4966566;28;20222;-68
2021/05/30 03:47:29;;;;;;;6.03;2.83;;;11.10;99.90;;;;;;4969164;28;20211;-69
2021/05/30 03:49:56;;;;;;;4.63;2.07;;;11.10;99.90;;;;;;4970793;28;20211;-69
2021/05/30 03:52:22;;;;;;;6.37;2.80;;;11.10;99.90;;;;;;4973819;28;20198;-69
2021/05/30 03:54:49;;;;;;;5.97;2.77;;;11.20;99.90;;;;;;4971839;28;20282;-69
2021/05/30 03:57:15;;;;;;;4.50;2.40;;;11.20;99.90;;;;;;4973124;28;20227;-69
2021/05/30 03:59:43;;;;;;;6.63;2.70;;;11.30;99.90;;;;;;4970189;28;20577;-68
2021/05/30 04:02:09;;;;;;;3.97;2.30;;;11.30;99.90;;;;;;4963296;28;20213;-70
2021/05/30 04:04:36;;;;;;;6.03;2.87;;;11.40;99.90;;;;;;4971974;28;20200;-69
2021/05/30 04:07:02;;;;;;;3.10;2.50;;;11.50;99.90;;;;;;4972465;28;20306;-69
2021/05/30 04:09:31;;;;;;;4.67;2.43;;;11.50;99.90;;;;;;4972225;28;20666;-67
2021/05/30 04:11:58;;;;;;;5.47;2.50;;;11.60;99.90;;;;;;4967850;28;20229;-68
2021/05/30 04:14:25;;;;;;;4.40;2.60;;;11.60;99.90;;;;;;4969349;28;20355;-68
2021/05/30 04:16:52;;;;;;;5.17;2.23;;;11.70;99.90;;;;;;4971630;28;20201;-69
2021/05/30 04:19:18;;;;;;;2.43;2.20;;;11.80;99.90;;;;;;4972165;28;20203;-69
2021/05/30 04:21:45;;;;;;;3.57;2.43;;;11.90;99.90;;;;;;4971530;28;20256;-69
2021/05/30 04:24:11;;;;;;;3.40;2.40;;;12.00;99.90;;;;;;4972118;28;20228;-69
2021/05/30 04:26:38;;;;;;;5.00;2.83;;;12.10;99.90;;;;;;4971924;28;20596;-68
2021/05/30 04:29:04;;;;;;;4.03;2.90;;;12.10;99.90;;;;;;4970132;28;20242;-68
2021/05/30 04:31:31;;;;;;;4.83;2.63;;;12.20;99.90;;;;;;4971636;28;20202;-69
2021/05/30 04:33:58;;;;;;;4.20;2.63;;;12.20;99.90;;;;;;4972083;28;20242;-69
2021/05/30 04:36:25;;;;;;;5.33;2.37;;;12.30;99.90;;;;;;4972144;28;20302;-70
2021/05/30 04:38:51;;;;;;;4.93;2.90;;;12.30;99.90;;;;;;4971917;28;20202;-69
2021/05/30 04:41:18;;;;;;;6.07;2.43;;;12.40;99.90;;;;;;4971816;28;20210;-69
2021/05/30 04:43:44;;;;;;;3.50;2.60;;;12.50;99.90;;;;;;4970448;28;20234;-70
2021/05/30 04:46:11;;;;;;;4.90;2.37;;;12.50;99.90;;;;;;4970062;28;20307;-69
2021/05/30 04:48:37;;;;;;;3.97;2.30;;;12.60;99.90;;;;;;4971239;28;20230;-68
2021/05/30 04:51:12;;;;;;;2.30;2.10;;;12.70;99.90;;;;;;4972102;28;20227;-69
2021/05/30 04:53:40;;;;;;;6.50;2.30;;;12.80;99.90;;;;;;4962742;28;20316;-69
2021/05/30 04:56:08;;;;;;;5.20;2.93;;;12.80;99.90;;;;;;4971195;28;20636;-70
2021/05/30 04:58:35;;;;;;;4.70;2.87;;;12.90;99.90;;;;;;4971106;28;20216;-70
2021/05/30 05:01:02;;;;;;;6.23;2.27;;;12.90;99.90;;;;;;4969264;28;20667;-69
2021/05/30 05:03:29;;;;;;;4.67;2.60;;;13.00;99.90;;;;;;4971332;28;20287;-69
2021/05/30 05:05:56;;;;;;;8.07;2.50;;;13.00;99.90;;;;;;4971046;28;20222;-69
2021/05/30 05:08:24;;;;;;;6.90;2.30;;;13.10;99.90;;;;;;4971349;28;20196;-69
2021/05/30 05:10:50;;;;;;;3.77;2.30;;;13.20;99.90;;;;;;4970791;28;20315;-68
2021/05/30 05:13:17;;;;;;;4.33;2.13;;;13.20;99.90;;;;;;4971522;28;20483;-69
2021/05/30 05:15:44;;;;;;;3.73;2.20;;;13.30;99.90;;;;;;4967674;28;20729;-68
2021/05/30 05:18:13;;;;;;;3.57;2.10;;;13.40;99.90;;;;;;4971212;28;20201;-68
2021/05/30 05:20:39;;;;;;;4.53;2.23;;;13.40;99.90;;;;;;4970882;28;20201;-69
2021/05/30 05:23:06;;;;;;;4.63;2.77;;;13.60;99.90;;;;;;4971644;28;20814;-69
2021/05/30 05:25:35;;;;;;;5.80;2.90;;;13.70;99.90;;;;;;4965003;28;20240;-69
2021/05/30 05:28:02;;;;;;;4.73;2.23;;;13.90;99.90;;;;;;4970368;28;20222;-69
2021/05/30 05:30:29;;;;;;;5.97;2.20;;;14.00;99.90;;;;;;4967781;28;20332;-69
2021/05/30 05:32:56;;;;;;;4.27;1.83;;;14.20;99.90;;;;;;4971863;28;21082;-69
2021/05/30 05:35:23;;;;;;;4.90;1.90;;;14.50;99.90;;;;;;4970875;28;20229;-69
2021/05/30 05:37:53;;;;;;;6.23;2.60;;;14.70;99.90;;;;;;4970817;28;20245;-68
2021/05/30 05:40:20;;;;;;;4.80;2.27;;;14.80;99.90;;;;;;4965614;28;20237;-68
2021/05/30 05:42:47;;;;;;;4.43;2.50;;;15.00;99.90;;;;;;4962377;28;20216;-69
2021/05/30 05:45:15;;;;;;;3.73;2.00;;;15.20;99.90;;;;;;4968228;28;20225;-68
2021/05/30 05:47:43;;;;;;;3.90;2.03;;;15.30;99.90;;;;;;4971000;28;20697;-69
2021/05/30 05:50:10;;;;;;;2.60;1.80;;;15.30;99.90;;;;;;4984722;28;20527;-68
2021/05/30 05:52:37;;;;;;;3.50;1.93;;;15.40;99.90;;;;;;4970915;28;20747;-69
2021/05/30 05:55:05;;;;;;;3.80;1.77;;;15.40;99.90;;;;;;4970114;28;20293;-68
2021/05/30 05:57:31;;;;;;;3.10;1.80;;;15.50;99.90;;;;;;4970417;28;20203;-69
2021/05/30 05:59:58;;;;;;;2.97;1.90;;;15.70;99.90;;;;;;4967127;28;20653;-69
2021/05/30 06:02:25;;;;;;;4.47;2.13;;;15.70;99.90;;;;;;4971007;28;20261;-68
2021/05/30 06:04:52;;;;;;;1.73;1.63;;;15.80;99.90;;;;;;4969735;28;20233;-68
2021/05/30 06:07:18;;;;;;;2.77;1.77;;;15.90;99.90;;;;;;4969931;28;20204;-69
2021/05/30 06:09:44;;;;;;;4.23;2.20;;;16.10;99.90;;;;;;4969504;28;20212;-68
2021/05/30 06:12:12;;;;;;;3.53;1.80;;;16.40;99.90;;;;;;4962232;28;20236;-70
2021/05/30 06:14:38;;;;;;;5.03;2.10;;;16.60;99.90;;;;;;4968185;28;20203;-69
2021/05/30 06:17:07;;;;;;;3.80;1.63;;;17.60;99.90;;;;;;4969866;28;20697;-68
2021/05/30 06:19:33;;;;;;;2.40;1.80;;;19.10;99.90;;;;;;4969688;28;20279;-68
2021/05/30 06:22:01;;;;;;;2.70;1.20;;;21.20;99.90;;;;;;4968940;28;20754;-68
2021/05/30 06:24:28;;;;;;;4.97;1.48;;;23.50;97.50;;;;;;4968420;28;20555;-69
2021/05/30 06:26:55;;;;;;;3.22;1.55;;;25.00;90.80;;;;;;4968485;28;20232;-69
2021/05/30 06:29:22;;;;;;;1.73;1.45;;;27.00;80.00;;;;;;4960393;28;20524;-69
2021/05/30 06:31:48;;;;;;;3.45;1.42;;;29.50;68.10;;;;;;4968834;28;20275;-69
2021/05/30 06:34:16;;;;;;;2.33;1.50;;;31.50;58.60;;;;;;4963238;28;20204;-69
2021/05/30 06:36:42;;;;;;;2.42;1.60;;;33.10;53.40;;;;;;4969271;28;20196;-68
2021/05/30 06:39:09;;;;;;;1.73;1.38;;;34.30;49.70;;;;;;4969289;28;20259;-70
2021/05/30 06:41:36;;;;;;;3.40;1.60;;;35.20;46.50;;;;;;4969624;28;20196;-69
2021/05/30 06:44:04;;;;;;;2.00;1.58;;;33.80;44.80;;;;;;4968515;28;20197;-69
2021/05/30 06:46:30;;;;;;;2.20;1.40;;;32.90;45.50;;;;;;4968340;28;20603;-70
2021/05/30 06:48:57;;;;;;;2.10;1.50;;;31.80;46.00;;;;;;4967532;28;20221;-70
2021/05/30 06:51:29;;;;;;;2.13;1.73;;;30.80;46.10;;;;;;4970263;28;20228;-69
2021/05/30 06:53:55;;;;;;;4.72;2.10;;;29.90;46.80;;;;;;4969933;28;20697;-68
2021/05/30 06:56:22;;;;;;;3.78;1.98;;;29.90;47.40;;;;;;4968164;28;20196;-69
2021/05/30 06:58:49;;;;;;;3.13;1.50;;;29.70;46.80;;;;;;4968604;28;20266;-70
2021/05/30 07:01:18;;;;;;;3.72;1.67;;;29.80;47.50;;;;;;4967866;28;20705;-70
2021/05/30 07:03:45;;;;;;;2.00;1.52;;;30.00;46.90;;;;;;4969386;28;20211;-70
2021/05/30 07:06:11;;;;;;;2.30;1.30;;;30.30;46.10;;;;;;4968810;28;20729;-69
2021/05/30 07:08:39;;;;;;;2.00;1.52;;;30.40;46.60;;;;;;4969037;28;20276;-69
2021/05/30 07:11:05;;;;;;;2.88;1.63;;;31.10;45.10;;;;;;4963543;28;20267;-70
2021/05/30 07:13:32;;;;;;;3.08;1.42;;;32.30;44.20;;;;;;4968600;28;20271;-69
2021/05/30 07:15:58;;;;;;;2.20;1.63;;;32.80;42.90;;;;;;4966910;28;20267;-70
2021/05/30 07:18:25;;;;;;;5.30;1.90;;;31.70;42.90;;;;;;4969119;28;20204;-70
2021/05/30 07:20:53;;;;;;;2.42;1.50;;;30.60;44.00;;;;;;4968345;28;20633;-69
2021/05/30 07:23:20;;;;;;;2.88;1.60;;;29.10;45.70;;;;;;4969097;28;20223;-69
2021/05/30 07:25:48;;;;;;;1.98;1.60;;;27.90;47.70;;;;;;4968336;28;20232;-70
2021/05/30 07:28:14;;;;;;;2.22;1.35;;;26.70;48.80;;;;;;4972098;28;20762;-70
2021/05/30 07:30:41;;;;;;;5.40;1.85;;;25.70;50.60;;;;;;4970940;28;20231;-69
2021/05/30 07:33:08;;;;;;;2.33;1.70;;;24.90;51.90;;;;;;4972030;28;20315;-69
2021/05/30 07:35:36;;;;;;;3.08;1.60;;;24.30;53.30;;;;;;4973137;28;20203;-69
2021/05/30 07:38:03;;;;;;;2.13;1.65;;;23.70;54.20;;;;;;4971810;28;20215;-69
2021/05/30 07:40:30;;;;;;;2.75;1.80;;;23.30;54.90;;;;;;4971814;28;20237;-69
2021/05/30 07:42:58;;;;;;;2.90;1.33;;;22.90;55.90;;;;;;4973221;28;20292;-69
2021/05/30 07:45:27;;;;;;;3.55;1.90;;;22.50;57.10;;;;;;4969847;28;20224;-69
2021/05/30 07:47:53;;;;;;;2.78;1.63;;;22.10;58.00;;;;;;4972960;28;20606;-68
2021/05/30 07:50:20;;;;;;;2.75;1.60;;;21.80;59.00;;;;;;4972470;28;20208;-69
2021/05/30 07:52:47;;;;;;;2.97;1.65;;;21.60;60.00;;;;;;4964930;28;20229;-69
2021/05/30 07:55:15;;;;;;;2.78;1.50;;;21.40;60.80;;;;;;4971095;28;20212;-69
2021/05/30 07:57:41;;;;;;;1.92;1.60;;;21.30;62.30;;;;;;4972410;28;20680;-68
2021/05/30 08:00:15;;;;;;;3.72;1.88;;;21.30;63.20;;;;;;4968045;28;20201;-68
2021/05/30 08:02:42;;;;;;;3.25;1.58;;;21.10;63.80;;;;;;4972823;28;20192;-69
2021/05/30 08:05:11;;;;;;;2.15;1.58;;;20.90;65.00;;;;;;4971430;28;20725;-68
2021/05/30 08:07:37;;;;;;;6.35;1.83;;;20.80;66.20;;;;;;4970757;28;20507;-69
2021/05/30 08:10:05;;;;;;;2.20;1.40;;;20.70;67.30;;;;;;4970567;28;20200;-67
2021/05/30 08:12:32;;;;;;;6.50;1.80;;;20.80;68.80;;;;;;4972806;28;20204;-69
2021/05/30 08:14:59;;;;;;;3.25;1.40;;;20.80;68.70;;;;;;4969783;28;20236;-69
2021/05/30 08:17:26;;;;;;;3.70;1.70;;;20.70;69.30;;;;;;4972547;28;20209;-70
2021/05/30 08:19:53;;;;;;;2.55;1.55;;;20.60;70.60;;;;;;4971705;28;20212;-70
2021/05/30 08:22:19;;;;;;;4.63;1.55;;;20.60;71.80;;;;;;4972835;28;20205;-69
2021/05/30 08:24:47;;;;;;;7.40;1.60;;;20.50;73.00;;;;;;4970680;28;20279;-69
2021/05/30 08:27:14;;;;;;;7.80;2.17;;;20.40;73.50;;;;;;4972335;28;20243;-69
2021/05/30 08:29:40;;;;;;;3.65;1.80;;;20.30;74.40;;;;;;4970116;28;20275;-69
2021/05/30 08:32:08;;;;;;;1.55;1.45;;;20.20;74.70;;;;;;4972417;28;20613;-69
2021/05/30 08:34:35;;;;;;;5.45;1.55;;;20.20;75.60;;;;;;4970990;28;20203;-69
2021/05/30 08:37:02;;;;;;;3.42;1.40;;;20.30;76.60;;;;;;4972281;28;20185;-70
2021/05/30 08:39:28;;;;;;;2.40;1.50;;;20.20;77.10;;;;;;4969827;28;20248;-70
2021/05/30 08:41:55;;;;;;;2.65;1.70;;;20.20;78.00;;;;;;4969891;28;20714;-70
2021/05/30 08:44:21;;;;;;;5.90;2.00;;;20.20;78.60;;;;;;4970456;28;20224;-69
2021/05/30 08:46:48;;;;;;;3.58;1.42;;;20.10;79.20;;;;;;4986224;28;20399;-68
2021/05/30 08:49:14;;;;;;;3.20;1.63;;;20.10;79.40;;;;;;4969537;28;20624;-69
2021/05/30 08:51:43;;;;;;;4.85;1.88;;;20.10;80.40;;;;;;4971757;28;20654;-68
2021/05/30 08:54:12;;;;;;;4.53;1.33;;;20.00;80.60;;;;;;4971750;28;20223;-68
2021/05/30 08:56:41;;;;;;;5.30;1.60;;;20.00;81.00;;;;;;4971420;28;20196;-68
2021/05/30 08:59:27;;;;;;;5.15;2.05;;;19.80;81.10;;;;;;4969591;28;20197;-68
2021/05/30 09:01:54;;;;;;;2.30;1.50;;;19.70;81.90;;;;;;4971007;28;20547;-69
2021/05/30 09:04:30;;;;;;;2.33;1.77;;;19.80;83.10;;;;;;4970755;28;20223;-69
2021/05/30 09:06:58;;;;;;;7.70;1.65;;;19.90;83.90;;;;;;4961916;28;20259;-70
2021/05/30 09:09:24;;;;;;;3.20;1.63;;;20.10;83.90;;;;;;4970427;28;20251;-70
2021/05/30 09:11:53;;;;;;;3.08;1.50;;;20.10;83.40;;;;;;4971130;28;20335;-69
2021/05/30 09:14:23;;;;;;;3.50;1.45;;;20.00;82.10;;;;;;4969151;28;20259;-69
2021/05/30 09:17:03;;;;;;;3.17;1.52;;;19.80;81.80;;;;;;4970898;28;20694;-69
2021/05/30 09:19:39;;;;;;;1.55;1.42;;;19.80;83.00;;;;;;4969795;28;20208;-69
2021/05/30 09:22:36;;;;;;;2.10;1.30;;;19.80;84.20;;;;;;4971650;28;20200;-68
2021/05/30 09:25:17;;;;;;;2.55;1.73;;;19.90;84.20;;;;;;4971668;28;20354;-68
2021/05/30 09:27:58;;;;;;;2.15;1.33;;;19.70;83.40;;;;;;4968563;28;21080;-68
2021/05/30 09:30:26;;;;;;;3.17;1.58;;;19.60;84.40;;;;;;4968586;28;20192;-68
2021/05/30 09:32:58;;;;;;;2.72;1.73;;;19.50;85.50;;;;;;4968845;28;20279;-69
2021/05/30 09:35:26;;;;;;;4.60;1.90;;;19.60;86.60;;;;;;4971041;28;20200;-69
2021/05/30 09:38:01;;;;;;;3.15;1.90;;;19.60;87.20;;;;;;4971334;28;20204;-69
2021/05/30 09:40:39;;;;;;;2.50;1.67;;;19.70;88.80;;;;;;4968491;28;20218;-69
2021/05/30 09:43:08;;;;;;;1.65;1.40;;;19.80;86.10;;;;;;4967048;28;20445;-69
2021/05/30 09:45:36;;;;;;;2.25;1.40;;;19.80;81.90;;;;;;4969235;28;20669;-68
2021/05/30 09:48:04;;;;;;;1.70;1.60;;;20.00;80.70;;;;;;4969039;28;20315;-69
2021/05/30 09:50:32;;;;;;;1.50;1.40;;;20.10;80.30;;;;;;4968432;28;20211;-69
2021/05/30 09:53:02;;;;;;;2.20;1.27;;;20.20;77.90;;;;;;4969476;28;20720;-69
2021/05/30 09:55:32;;;;;;;4.32;2.03;;;20.50;76.50;;;;;;4970421;28;20226;-69
2021/05/30 09:58:11;;;;;;;1.50;1.40;;;20.70;73.60;;;;;;4969496;28;20781;-69
2021/05/30 10:00:39;;;;;;;1.50;1.40;;;21.00;70.40;;;;;;4966817;28;20542;-69
2021/05/30 10:03:06;;;;;;;2.75;1.30;;;21.20;67.50;;;;;;4968681;28;20571;-69
2021/05/30 10:05:33;;;;;;;1.60;1.50;;;21.40;66.40;;;;;;4962563;28;20243;-69
2021/05/30 10:08:01;;;;;;;2.53;1.33;;;21.60;65.10;;;;;;4969343;28;20207;-69
2021/05/30 10:10:28;;;;;;;1.45;1.33;;;21.80;62.60;;;;;;4966396;28;20229;-68
2021/05/30 10:12:55;;;;;;;1.83;1.40;;;21.80;61.30;;;;;;4969182;28;20244;-67
2021/05/30 10:15:22;;;;;;;3.33;1.23;;;21.80;59.70;;;;;;4962784;28;20244;-67
2021/05/30 10:17:51;;;;;;;1.20;1.17;;;21.90;58.10;;;;;;4960460;28;20239;-68
2021/05/30 10:20:22;;;;;;;1.50;0.90;;;22.10;56.80;;;;;;4960200;28;20450;-68
2021/05/30 10:22:51;;;;;;;1.55;1.17;;;22.40;55.70;;;;;;4967318;28;20335;-70
2021/05/30 10:25:30;;;;;;;2.05;1.20;;;22.60;54.00;;;;;;4968217;28;20224;-69
2021/05/30 10:28:13;;;;;;;1.30;1.20;;;22.70;53.50;;;;;;4966700;28;20655;-68
2021/05/30 10:30:42;;;;;;;1.50;1.35;;;22.80;53.00;;;;;;4963934;28;20200;-67
2021/05/30 10:33:11;;;;;;;1.80;1.30;;;22.80;52.60;;;;;;4968509;28;20203;-68
2021/05/30 10:35:38;;;;;;;2.88;2.30;;;22.80;52.10;;;;;;4968422;28;20307;-66
2021/05/30 10:38:05;;;;;;;3.22;1.65;;;22.70;53.00;;;;;;4961896;28;20310;-67
2021/05/30 10:40:35;;;;;;;3.50;1.25;;;22.70;52.90;;;;;;4964212;28;20266;-67
2021/05/30 10:43:31;;;;;;;2.03;1.38;;;22.60;51.60;;;;;;4967267;28;20239;-67
2021/05/30 10:46:03;;;;;;;2.20;1.20;;;22.50;52.00;;;;;;4897715;29;21095;-67
2021/05/30 10:48:30;;;;;;;1.35;1.20;;;22.40;52.40;;;;;;4908286;29;20218;-67
2021/05/30 10:51:16;;;;;;;2.70;1.27;;;22.50;53.20;;;;;;4908398;29;20962;-67
2021/05/30 10:53:45;;;;;;;1.77;1.10;;;22.40;52.10;;;;;;4906325;29;20214;-68
2021/05/30 10:56:23;;;;;;;2.30;1.20;;;22.50;52.20;;;;;;4909116;29;20234;-67
2021/05/30 10:59:27;;;;;;;4.05;1.00;;;22.40;51.60;;;;;;4908010;29;20234;-68
2021/05/30 11:01:55;;;;;;;2.20;0.70;;;22.30;51.00;;;;;;4852885;29;20655;-68
2021/05/30 11:04:38;;;;;;;1.48;1.38;;;22.20;50.00;;;;;;4853140;29;20240;-68
2021/05/30 11:07:07;;;;;;;1.02;0.80;;;22.10;50.20;;;;;;4838642;29;20224;-68
2021/05/30 11:10:18;;;;;;;3.50;1.15;;;22.00;50.20;;;;;;4852005;29;20213;-68
2021/05/30 11:12:55;;;;;;;1.25;0.90;;;21.90;50.30;;;;;;4852362;29;20215;-67
2021/05/30 11:15:42;;;;;;;0.80;0.80;;;21.80;50.20;;;;;;4835975;29;20204;-68
2021/05/30 11:18:19;;;;;;;0.88;0.88;;;21.60;49.80;;;;;;4833796;29;20260;-67
2021/05/30 11:20:48;;;;;;;1.10;1.00;;;21.50;49.90;;;;;;4895734;29;20226;-68
2021/05/30 11:23:18;;;;;;;0.82;0.75;;;21.40;50.10;;;;;;4909230;29;20249;-67
2021/05/30 11:25:48;;;;;;;1.13;1.10;;;21.30;49.30;;;;;;4903410;29;20302;-67
2021/05/30 11:28:17;;;;;;;0.98;0.88;;;21.20;47.70;;;;;;4905325;29;20202;-67
2021/05/30 11:30:59;;;;;;;0.70;0.70;;;21.10;46.30;;;;;;4899707;29;20562;-67
2021/05/30 11:33:40;;;;;;;1.08;0.80;;;21.10;45.40;;;;;;4907864;29;20202;-68
2021/05/30 11:36:09;;;;;;;0.75;0.75;;;20.90;44.50;;;;;;4944642;28;20200;-68
2021/05/30 11:38:40;;;;;;;1.05;0.80;;;20.80;44.40;;;;;;4967842;28;20236;-67
2021/05/30 11:41:11;;;;;;;0.90;0.80;;;20.80;44.10;;;;;;4967954;28;20578;-68
2021/05/30 11:43:38;;;;;;;0.70;0.70;;;21.00;44.90;;;;;;4967793;28;20193;-68
2021/05/30 11:46:12;;;;;;;0.88;0.88;;;21.50;44.90;;;;;;4967272;28;20221;-68
2021/05/30 11:48:41;;;;;;;1.52;0.80;;;22.20;44.40;;;;;;4968359;28;20776;-67
2021/05/30 11:51:08;;;;;;;0.80;0.80;;;22.90;44.20;;;;;;4971031;28;20236;-68
2021/05/30 11:53:35;;;;;;;4.07;0.93;;;23.30;43.90;;;;;;4969243;28;20320;-68
2021/05/30 11:56:04;;;;;;;3.13;0.85;;;23.70;43.80;;;;;;4966117;28;20243;-68
2021/05/30 11:58:31;;;;;;;2.00;0.80;;;23.80;44.50;;;;;;4967888;28;20200;-68
2021/05/30 12:00:59;;;;;;;1.73;1.45;;;24.00;45.40;;;;;;4965530;28;20287;-68
2021/05/30 12:03:26;;;;;;;1.30;0.93;;;24.10;45.40;;;;;;4968326;28;20560;-68
2021/05/30 12:05:57;;;;;;;1.50;1.00;;;24.00;45.90;;;;;;4967890;28;20251;-68
2021/05/30 12:08:23;;;;;;;1.90;0.90;;;24.10;46.50;;;;;;4967387;28;20208;-68
2021/05/30 12:10:55;;;;;;;0.98;0.85;;;24.20;46.70;;;;;;4969422;28;20247;-68
2021/05/30 12:13:26;;;;;;;1.73;1.05;;;24.40;47.00;;;;;;4971236;28;20189;-68
2021/05/30 12:15:53;;;;;;;2.63;1.30;;;24.50;46.50;;;;;;4970169;28;20730;-68
2021/05/30 12:18:21;;;;;;;1.88;0.95;;;24.40;46.90;;;;;;4971726;28;20295;-68
2021/05/30 12:20:48;;;;;;;5.05;1.30;;;24.30;46.40;;;;;;4971206;28;20259;-68
2021/05/30 12:23:17;;;;;;;1.30;1.17;;;24.20;46.60;;;;;;4971425;28;20267;-68
2021/05/30 12:25:52;;;;;;;3.13;0.82;;;24.10;45.90;;;;;;4970701;28;20216;-67
2021/05/30 12:28:20;;;;;;;1.40;1.10;;;23.70;45.40;;;;;;4970658;28;20673;-67
2021/05/30 12:30:51;;;;;;;4.60;1.00;;;23.20;45.90;;;;;;4968508;28;20205;-67
2021/05/30 12:33:20;;;;;;;1.00;0.90;;;22.50;46.20;;;;;;4969930;28;20228;-69
2021/05/30 12:35:52;;;;;;;1.17;0.80;;;21.90;46.30;;;;;;4971506;28;20196;-68
2021/05/30 12:38:21;;;;;;;1.27;1.17;;;21.40;48.00;;;;;;4971416;28;20313;-69
2021/05/30 12:40:49;;;;;;;1.52;1.13;;;21.00;48.80;;;;;;4970139;28;20242;-68
2021/05/30 12:43:15;;;;;;;1.10;1.00;;;20.70;49.70;;;;;;4970906;28;20288;-69
2021/05/30 12:45:56;;;;;;;0.90;0.90;;;20.40;50.00;;;;;;4969608;28;20212;-68
2021/05/30 12:48:37;;;;;;;0.85;0.85;;;20.00;51.30;;;;;;4971445;28;20360;-68
2021/05/30 12:51:21;;;;;;;1.35;1.08;;;19.70;51.10;;;;;;4970314;28;20252;-68
2021/05/30 12:53:48;;;;;;;1.10;1.00;;;19.40;51.30;;;;;;4970986;28;20201;-67
2021/05/30 12:56:17;;;;;;;1.63;1.20;;;19.10;51.90;;;;;;4971481;28;20196;-67